sensor_id;sensor_type;location;lat;lon;timestamp;temperature;humidity
14471;DHT22;7321;50.802;4.336;2022-08-19T00:01:47;22.40;99.90
14471;DHT22;7321;50.802;4.336;2022-08-19T00:04:15;22.40;99.90
14471;DHT22;7321;50.802;4.336;2022-08-19T00:06:42;22.40;99.90
14471;DHT22;7321;50.802;4.336;2022-08-19T00:09:11;22.40;99.90
14471;DHT22;7321;50.802;4.336;2022-08-19T00:11:38;22.40;99.90
14471;DHT22;7321;50.802;4.336;2022-08-19T00:14:06;22.40;99.90
14471;DHT22;7321;50.802;4.336;2022-08-19T00:16:32;22.30;99.90
14471;DHT22;7321;50.802;4.336;2022-08-19T00:18:58;22.40;99.90
14471;DHT22;7321;50.802;4.336;2022-08-19T00:21:25;22.40;99.90
14471;DHT22;7321;50.802;4.336;2022-08-19T00:23:53;22.40;99.90
14471;DHT22;7321;50.802;4.336;2022-08-19T00:26:19;22.40;99.90
14471;DHT22;7321;50.802;4.336;2022-08-19T00:28:45;22.40;99.90
14471;DHT22;7321;50.802;4.336;2022-08-19T00:31:12;22.50;99.90
14471;DHT22;7321;50.802;4.336;2022-08-19T00:33:37;22.50;99.90
14471;DHT22;7321;50.802;4.336;2022-08-19T00:36:06;22.50;99.90
14471;DHT22;7321;50.802;4.336;2022-08-19T00:38:33;22.30;99.90
14471;DHT22;7321;50.802;4.336;2022-08-19T00:40:59;22.30;99.90
14471;DHT22;7321;50.802;4.336;2022-08-19T00:43:27;22.30;99.90
14471;DHT22;7321;50.802;4.336;2022-08-19T00:45:53;22.30;99.90
14471;DHT22;7321;50.802;4.336;2022-08-19T00:48:19;22.20;99.90
14471;DHT22;7321;50.802;4.336;2022-08-19T00:50:47;22.20;99.90
14471;DHT22;7321;50.802;4.336;2022-08-19T00:53:16;22.30;99.90
14471;DHT22;7321;50.802;4.336;2022-08-19T00:55:50;22.20;99.90
14471;DHT22;7321;50.802;4.336;2022-08-19T00:58:18;22.30;99.90
14471;DHT22;7321;50.802;4.336;2022-08-19T01:00:45;22.20;99.90
14471;DHT22;7321;50.802;4.336;2022-08-19T01:03:16;22.20;99.90
14471;DHT22;7321;50.802;4.336;2022-08-19T01:05:43;22.20;99.90
14471;DHT22;7321;50.802;4.336;2022-08-19T01:08:10;22.20;99.90
14471;DHT22;7321;50.802;4.336;2022-08-19T01:10:40;22.20;99.90
14471;DHT22;7321;50.802;4.336;2022-08-19T01:13:07;22.10;99.90
14471;DHT22;7321;50.802;4.336;2022-08-19T01:15:38;22.10;99.90
14471;DHT22;7321;50.802;4.336;2022-08-19T01:18:08;22.00;99.90
14471;DHT22;7321;50.802;4.336;2022-08-19T01:20:35;22.00;99.90
14471;DHT22;7321;50.802;4.336;2022-08-19T01:23:01;21.90;99.90
14471;DHT22;7321;50.802;4.336;2022-08-19T01:25:35;21.80;99.90
14471;DHT22;7321;50.802;4.336;2022-08-19T01:28:04;21.70;99.90
14471;DHT22;7321;50.802;4.336;2022-08-19T01:30:33;21.70;99.90
14471;DHT22;7321;50.802;4.336;2022-08-19T01:33:00;21.60;99.90
14471;DHT22;7321;50.802;4.336;2022-08-19T01:35:28;21.60;99.90
14471;DHT22;7321;50.802;4.336;2022-08-19T01:38:01;21.50;99.90
14471;DHT22;7321;50.802;4.336;2022-08-19T01:40:31;21.50;99.90
14471;DHT22;7321;50.802;4.336;2022-08-19T01:42:57;21.40;99.90
14471;DHT22;7321;50.802;4.336;2022-08-19T01:45:26;21.40;99.90
14471;DHT22;7321;50.802;4.336;2022-08-19T01:47:52;21.40;99.90
14471;DHT22;7321;50.802;4.336;2022-08-19T01:50:18;21.30;99.90
14471;DHT22;7321;50.802;4.336;2022-08-19T01:52:44;21.20;99.90
14471;DHT22;7321;50.802;4.336;2022-08-19T01:55:14;21.20;99.90
14471;DHT22;7321;50.802;4.336;2022-08-19T01:57:44;21.10;99.90
14471;DHT22;7321;50.802;4.336;2022-08-19T02:00:14;21.00;99.90
14471;DHT22;7321;50.802;4.336;2022-08-19T02:02:41;21.00;99.90
14471;DHT22;7321;50.802;4.336;2022-08-19T02:05:08;21.10;99.90
14471;DHT22;7321;50.802;4.336;2022-08-19T02:07:35;21.00;99.90
14471;DHT22;7321;50.802;4.336;2022-08-19T02:10:11;21.00;99.90
14471;DHT22;7321;50.802;4.336;2022-08-19T02:12:37;20.90;99.90
14471;DHT22;7321;50.802;4.336;2022-08-19T02:15:03;20.80;99.90
14471;DHT22;7321;50.802;4.336;2022-08-19T02:17:30;20.80;99.90
14471;DHT22;7321;50.802;4.336;2022-08-19T02:19:57;20.80;99.90
14471;DHT22;7321;50.802;4.336;2022-08-19T02:22:24;20.70;99.90
14471;DHT22;7321;50.802;4.336;2022-08-19T02:24:52;20.60;99.90
14471;DHT22;7321;50.802;4.336;2022-08-19T02:27:18;20.60;99.90
14471;DHT22;7321;50.802;4.336;2022-08-19T02:29:46;20.60;99.90
14471;DHT22;7321;50.802;4.336;2022-08-19T02:32:11;20.60;99.90
14471;DHT22;7321;50.802;4.336;2022-08-19T02:34:37;20.40;99.90
14471;DHT22;7321;50.802;4.336;2022-08-19T02:37:03;20.50;99.90
14471;DHT22;7321;50.802;4.336;2022-08-19T02:39:28;20.50;99.90
14471;DHT22;7321;50.802;4.336;2022-08-19T02:41:54;20.50;99.90
14471;DHT22;7321;50.802;4.336;2022-08-19T02:44:20;20.60;99.90
14471;DHT22;7321;50.802;4.336;2022-08-19T02:46:47;20.50;99.90
14471;DHT22;7321;50.802;4.336;2022-08-19T02:49:13;20.50;99.90
14471;DHT22;7321;50.802;4.336;2022-08-19T02:51:43;20.50;99.90
14471;DHT22;7321;50.802;4.336;2022-08-19T02:54:10;20.40;99.90
14471;DHT22;7321;50.802;4.336;2022-08-19T02:56:38;20.40;99.90
14471;DHT22;7321;50.802;4.336;2022-08-19T02:59:08;20.40;99.90
14471;DHT22;7321;50.802;4.336;2022-08-19T03:01:35;20.50;99.90
14471;DHT22;7321;50.802;4.336;2022-08-19T03:04:03;20.40;99.90
14471;DHT22;7321;50.802;4.336;2022-08-19T03:06:30;20.30;99.90
14471;DHT22;7321;50.802;4.336;2022-08-19T03:08:56;20.30;99.90
14471;DHT22;7321;50.802;4.336;2022-08-19T03:11:25;20.30;99.90
14471;DHT22;7321;50.802;4.336;2022-08-19T03:13:52;20.30;99.90
14471;DHT22;7321;50.802;4.336;2022-08-19T03:16:23;20.30;99.90
14471;DHT22;7321;50.802;4.336;2022-08-19T03:18:50;20.30;99.90
14471;DHT22;7321;50.802;4.336;2022-08-19T03:21:19;20.30;99.90
14471;DHT22;7321;50.802;4.336;2022-08-19T03:23:45;20.30;99.90
14471;DHT22;7321;50.802;4.336;2022-08-19T03:26:11;20.20;99.90
14471;DHT22;7321;50.802;4.336;2022-08-19T03:28:38;20.20;99.90
14471;DHT22;7321;50.802;4.336;2022-08-19T03:31:06;20.10;99.90
14471;DHT22;7321;50.802;4.336;2022-08-19T03:33:35;20.00;99.90
14471;DHT22;7321;50.802;4.336;2022-08-19T03:36:16;20.00;99.90
14471;DHT22;7321;50.802;4.336;2022-08-19T03:38:45;19.90;99.90
14471;DHT22;7321;50.802;4.336;2022-08-19T03:41:19;19.90;99.90
14471;DHT22;7321;50.802;4.336;2022-08-19T03:43:46;20.00;99.90
14471;DHT22;7321;50.802;4.336;2022-08-19T03:46:23;20.00;99.90
14471;DHT22;7321;50.802;4.336;2022-08-19T03:48:52;20.00;99.90
14471;DHT22;7321;50.802;4.336;2022-08-19T03:51:26;20.10;99.90
14471;DHT22;7321;50.802;4.336;2022-08-19T03:53:54;20.00;99.90
14471;DHT22;7321;50.802;4.336;2022-08-19T03:56:21;19.90;99.90
14471;DHT22;7321;50.802;4.336;2022-08-19T03:58:47;19.90;99.90
14471;DHT22;7321;50.802;4.336;2022-08-19T04:01:16;19.90;99.90
14471;DHT22;7321;50.802;4.336;2022-08-19T04:03:43;19.80;99.90
14471;DHT22;7321;50.802;4.336;2022-08-19T04:06:13;19.70;99.90
14471;DHT22;7321;50.802;4.336;2022-08-19T04:08:41;19.80;99.90
14471;DHT22;7321;50.802;4.336;2022-08-19T04:11:13;19.70;99.90
14471;DHT22;7321;50.802;4.336;2022-08-19T04:13:40;19.60;99.90
14471;DHT22;7321;50.802;4.336;2022-08-19T04:16:06;19.60;99.90
14471;DHT22;7321;50.802;4.336;2022-08-19T04:18:37;19.60;99.90
14471;DHT22;7321;50.802;4.336;2022-08-19T04:21:03;19.60;99.90
14471;DHT22;7321;50.802;4.336;2022-08-19T04:23:29;19.40;99.90
14471;DHT22;7321;50.802;4.336;2022-08-19T04:25:55;19.30;99.90
14471;DHT22;7321;50.802;4.336;2022-08-19T04:28:22;19.30;99.90
14471;DHT22;7321;50.802;4.336;2022-08-19T04:30:50;19.30;99.90
14471;DHT22;7321;50.802;4.336;2022-08-19T04:33:21;19.30;99.90
14471;DHT22;7321;50.802;4.336;2022-08-19T04:35:51;19.40;99.90
14471;DHT22;7321;50.802;4.336;2022-08-19T04:38:19;19.40;99.90
14471;DHT22;7321;50.802;4.336;2022-08-19T04:40:49;19.40;99.90
14471;DHT22;7321;50.802;4.336;2022-08-19T04:43:35;19.40;99.90
14471;DHT22;7321;50.802;4.336;2022-08-19T04:46:11;19.40;99.90
14471;DHT22;7321;50.802;4.336;2022-08-19T04:48:39;19.40;99.90
14471;DHT22;7321;50.802;4.336;2022-08-19T04:51:10;19.50;99.90
14471;DHT22;7321;50.802;4.336;2022-08-19T04:53:38;19.40;99.90
14471;DHT22;7321;50.802;4.336;2022-08-19T04:56:08;19.50;99.90
14471;DHT22;7321;50.802;4.336;2022-08-19T04:58:34;19.60;99.90
14471;DHT22;7321;50.802;4.336;2022-08-19T05:00:59;19.50;99.90
14471;DHT22;7321;50.802;4.336;2022-08-19T05:03:26;19.50;99.90
14471;DHT22;7321;50.802;4.336;2022-08-19T05:05:52;19.40;99.90
14471;DHT22;7321;50.802;4.336;2022-08-19T05:08:20;19.50;99.90
14471;DHT22;7321;50.802;4.336;2022-08-19T05:10:51;19.60;99.90
14471;DHT22;7321;50.802;4.336;2022-08-19T05:13:19;19.60;99.90
14471;DHT22;7321;50.802;4.336;2022-08-19T05:15:53;19.60;99.90
14471;DHT22;7321;50.802;4.336;2022-08-19T05:18:19;19.60;99.90
14471;DHT22;7321;50.802;4.336;2022-08-19T05:21:13;19.60;99.90
14471;DHT22;7321;50.802;4.336;2022-08-19T05:23:57;19.60;99.90
14471;DHT22;7321;50.802;4.336;2022-08-19T05:26:24;19.60;99.90
14471;DHT22;7321;50.802;4.336;2022-08-19T05:28:52;19.50;99.90
14471;DHT22;7321;50.802;4.336;2022-08-19T05:31:18;19.60;99.90
14471;DHT22;7321;50.802;4.336;2022-08-19T05:33:44;19.60;99.90
14471;DHT22;7321;50.802;4.336;2022-08-19T05:36:10;19.80;99.90
14471;DHT22;7321;50.802;4.336;2022-08-19T05:38:36;19.80;99.90
14471;DHT22;7321;50.802;4.336;2022-08-19T05:41:09;19.80;99.90
14471;DHT22;7321;50.802;4.336;2022-08-19T05:43:36;19.70;99.90
14471;DHT22;7321;50.802;4.336;2022-08-19T05:46:06;19.80;99.90
14471;DHT22;7321;50.802;4.336;2022-08-19T05:48:34;20.00;99.90
14471;DHT22;7321;50.802;4.336;2022-08-19T05:51:07;20.20;99.90
14471;DHT22;7321;50.802;4.336;2022-08-19T05:53:34;20.20;99.90
14471;DHT22;7321;50.802;4.336;2022-08-19T05:56:12;20.30;99.90
14471;DHT22;7321;50.802;4.336;2022-08-19T05:58:39;20.30;99.90
14471;DHT22;7321;50.802;4.336;2022-08-19T06:01:10;20.40;99.90
14471;DHT22;7321;50.802;4.336;2022-08-19T06:03:37;20.40;99.90
14471;DHT22;7321;50.802;4.336;2022-08-19T06:06:07;20.40;99.90
14471;DHT22;7321;50.802;4.336;2022-08-19T06:08:34;20.50;99.90
14471;DHT22;7321;50.802;4.336;2022-08-19T06:11:16;20.60;99.90
14471;DHT22;7321;50.802;4.336;2022-08-19T06:13:43;20.70;99.90
14471;DHT22;7321;50.802;4.336;2022-08-19T06:16:10;20.60;99.90
14471;DHT22;7321;50.802;4.336;2022-08-19T06:18:36;20.70;99.90
14471;DHT22;7321;50.802;4.336;2022-08-19T06:21:02;20.90;99.90
14471;DHT22;7321;50.802;4.336;2022-08-19T06:23:30;21.00;99.90
14471;DHT22;7321;50.802;4.336;2022-08-19T06:25:56;21.20;99.90
14471;DHT22;7321;50.802;4.336;2022-08-19T06:28:22;21.20;99.90
14471;DHT22;7321;50.802;4.336;2022-08-19T06:30:49;21.20;99.90
14471;DHT22;7321;50.802;4.336;2022-08-19T06:33:16;21.20;99.90
14471;DHT22;7321;50.802;4.336;2022-08-19T06:35:41;21.30;99.90
14471;DHT22;7321;50.802;4.336;2022-08-19T06:38:07;21.30;99.90
14471;DHT22;7321;50.802;4.336;2022-08-19T06:40:35;21.30;99.90
14471;DHT22;7321;50.802;4.336;2022-08-19T06:43:01;21.40;99.90
14471;DHT22;7321;50.802;4.336;2022-08-19T06:45:28;21.50;99.90
14471;DHT22;7321;50.802;4.336;2022-08-19T06:47:54;21.60;99.90
14471;DHT22;7321;50.802;4.336;2022-08-19T06:50:24;21.80;99.90
14471;DHT22;7321;50.802;4.336;2022-08-19T06:52:50;21.80;99.90
14471;DHT22;7321;50.802;4.336;2022-08-19T06:55:16;21.90;99.90
14471;DHT22;7321;50.802;4.336;2022-08-19T06:57:43;21.80;99.90
14471;DHT22;7321;50.802;4.336;2022-08-19T07:00:11;21.90;99.90
14471;DHT22;7321;50.802;4.336;2022-08-19T07:02:41;21.90;99.90
14471;DHT22;7321;50.802;4.336;2022-08-19T07:05:08;22.00;99.90
14471;DHT22;7321;50.802;4.336;2022-08-19T07:07:33;22.10;99.90
14471;DHT22;7321;50.802;4.336;2022-08-19T07:10:03;22.00;99.90
14471;DHT22;7321;50.802;4.336;2022-08-19T07:12:32;22.00;99.90
14471;DHT22;7321;50.802;4.336;2022-08-19T07:14:59;22.10;99.90
14471;DHT22;7321;50.802;4.336;2022-08-19T07:17:25;22.00;99.90
14471;DHT22;7321;50.802;4.336;2022-08-19T07:19:51;22.00;99.90
14471;DHT22;7321;50.802;4.336;2022-08-19T07:22:17;22.10;99.90
14471;DHT22;7321;50.802;4.336;2022-08-19T07:24:43;22.20;99.90
14471;DHT22;7321;50.802;4.336;2022-08-19T07:27:09;22.40;99.90
14471;DHT22;7321;50.802;4.336;2022-08-19T07:29:36;22.40;99.90
14471;DHT22;7321;50.802;4.336;2022-08-19T07:32:03;22.50;99.90
14471;DHT22;7321;50.802;4.336;2022-08-19T07:34:30;22.50;99.90
14471;DHT22;7321;50.802;4.336;2022-08-19T07:36:56;22.60;99.90
14471;DHT22;7321;50.802;4.336;2022-08-19T07:39:28;22.70;99.90
14471;DHT22;7321;50.802;4.336;2022-08-19T07:41:55;22.80;99.90
14471;DHT22;7321;50.802;4.336;2022-08-19T07:44:21;22.80;99.90
14471;DHT22;7321;50.802;4.336;2022-08-19T07:46:51;22.90;99.90
14471;DHT22;7321;50.802;4.336;2022-08-19T07:49:18;22.70;99.90
14471;DHT22;7321;50.802;4.336;2022-08-19T07:52:09;22.70;99.90
14471;DHT22;7321;50.802;4.336;2022-08-19T07:54:37;22.70;99.90
14471;DHT22;7321;50.802;4.336;2022-08-19T07:57:03;22.70;99.90
14471;DHT22;7321;50.802;4.336;2022-08-19T07:59:30;22.90;99.90
14471;DHT22;7321;50.802;4.336;2022-08-19T08:01:56;23.00;99.90
14471;DHT22;7321;50.802;4.336;2022-08-19T08:04:25;23.10;99.90
14471;DHT22;7321;50.802;4.336;2022-08-19T08:07:10;23.10;99.90
14471;DHT22;7321;50.802;4.336;2022-08-19T08:09:54;23.30;99.90
14471;DHT22;7321;50.802;4.336;2022-08-19T08:12:24;23.40;99.90
14471;DHT22;7321;50.802;4.336;2022-08-19T08:14:55;23.30;99.90
14471;DHT22;7321;50.802;4.336;2022-08-19T08:17:24;23.30;99.90
14471;DHT22;7321;50.802;4.336;2022-08-19T08:19:50;23.30;99.90
14471;DHT22;7321;50.802;4.336;2022-08-19T08:22:18;23.50;99.90
14471;DHT22;7321;50.802;4.336;2022-08-19T08:27:38;23.70;99.90
14471;DHT22;7321;50.802;4.336;2022-08-19T08:30:19;23.70;99.90
14471;DHT22;7321;50.802;4.336;2022-08-19T08:32:45;23.70;99.90
14471;DHT22;7321;50.802;4.336;2022-08-19T08:35:14;23.70;99.90
14471;DHT22;7321;50.802;4.336;2022-08-19T08:37:42;23.70;99.90
14471;DHT22;7321;50.802;4.336;2022-08-19T08:43:28;23.70;99.90
14471;DHT22;7321;50.802;4.336;2022-08-19T08:46:10;23.60;99.90
14471;DHT22;7321;50.802;4.336;2022-08-19T08:48:46;23.60;99.90
14471;DHT22;7321;50.802;4.336;2022-08-19T08:51:23;23.70;99.90
14471;DHT22;7321;50.802;4.336;2022-08-19T08:53:51;23.70;99.90
14471;DHT22;7321;50.802;4.336;2022-08-19T08:56:17;23.80;99.90
14471;DHT22;7321;50.802;4.336;2022-08-19T08:59:07;23.80;99.90
14471;DHT22;7321;50.802;4.336;2022-08-19T09:01:35;23.70;99.90
14471;DHT22;7321;50.802;4.336;2022-08-19T09:04:05;23.60;99.90
14471;DHT22;7321;50.802;4.336;2022-08-19T09:06:39;23.70;99.90
14471;DHT22;7321;50.802;4.336;2022-08-19T09:09:14;23.70;99.90
14471;DHT22;7321;50.802;4.336;2022-08-19T09:14:36;24.00;99.90
14471;DHT22;7321;50.802;4.336;2022-08-19T09:17:03;24.20;99.90
14471;DHT22;7321;50.802;4.336;2022-08-19T09:19:35;24.20;99.90
14471;DHT22;7321;50.802;4.336;2022-08-19T09:22:00;24.20;99.90
14471;DHT22;7321;50.802;4.336;2022-08-19T09:24:26;24.00;99.90
14471;DHT22;7321;50.802;4.336;2022-08-19T09:26:52;24.00;99.90
14471;DHT22;7321;50.802;4.336;2022-08-19T09:29:18;24.00;99.90
14471;DHT22;7321;50.802;4.336;2022-08-19T09:31:45;24.10;99.90
14471;DHT22;7321;50.802;4.336;2022-08-19T09:34:11;24.30;99.90
14471;DHT22;7321;50.802;4.336;2022-08-19T09:36:36;24.40;99.90
14471;DHT22;7321;50.802;4.336;2022-08-19T09:39:05;24.40;99.90
14471;DHT22;7321;50.802;4.336;2022-08-19T09:41:31;24.50;99.90
14471;DHT22;7321;50.802;4.336;2022-08-19T09:43:58;24.60;99.90
14471;DHT22;7321;50.802;4.336;2022-08-19T09:46:26;24.70;99.90
14471;DHT22;7321;50.802;4.336;2022-08-19T09:48:53;24.70;99.90
14471;DHT22;7321;50.802;4.336;2022-08-19T09:51:22;24.70;99.90
14471;DHT22;7321;50.802;4.336;2022-08-19T09:53:50;24.60;99.90
14471;DHT22;7321;50.802;4.336;2022-08-19T09:56:17;24.60;99.90
14471;DHT22;7321;50.802;4.336;2022-08-19T09:58:44;24.50;99.90
14471;DHT22;7321;50.802;4.336;2022-08-19T10:01:19;24.60;99.90
14471;DHT22;7321;50.802;4.336;2022-08-19T10:03:48;24.70;99.90
14471;DHT22;7321;50.802;4.336;2022-08-19T10:06:14;24.70;99.90
14471;DHT22;7321;50.802;4.336;2022-08-19T10:08:41;24.80;99.90
14471;DHT22;7321;50.802;4.336;2022-08-19T10:11:08;24.80;99.90
14471;DHT22;7321;50.802;4.336;2022-08-19T10:13:34;24.80;99.90
14471;DHT22;7321;50.802;4.336;2022-08-19T10:16:11;24.90;99.90
14471;DHT22;7321;50.802;4.336;2022-08-19T10:18:37;24.90;99.90
14471;DHT22;7321;50.802;4.336;2022-08-19T10:21:09;24.70;99.90
14471;DHT22;7321;50.802;4.336;2022-08-19T10:23:37;24.90;99.90
14471;DHT22;7321;50.802;4.336;2022-08-19T10:26:05;24.80;99.90
14471;DHT22;7321;50.802;4.336;2022-08-19T10:28:35;24.80;99.90
14471;DHT22;7321;50.802;4.336;2022-08-19T10:31:12;24.80;99.90
14471;DHT22;7321;50.802;4.336;2022-08-19T10:33:39;24.80;99.90
14471;DHT22;7321;50.802;4.336;2022-08-19T10:36:16;24.80;99.90
14471;DHT22;7321;50.802;4.336;2022-08-19T10:38:47;24.80;99.90
14471;DHT22;7321;50.802;4.336;2022-08-19T10:41:20;24.80;99.90
14471;DHT22;7321;50.802;4.336;2022-08-19T10:43:50;24.90;99.90
14471;DHT22;7321;50.802;4.336;2022-08-19T10:46:18;25.00;99.90
14471;DHT22;7321;50.802;4.336;2022-08-19T10:48:44;25.10;99.90
14471;DHT22;7321;50.802;4.336;2022-08-19T10:51:11;25.10;99.90
14471;DHT22;7321;50.802;4.336;2022-08-19T10:53:56;25.10;99.90
14471;DHT22;7321;50.802;4.336;2022-08-19T10:56:22;25.00;99.90
14471;DHT22;7321;50.802;4.336;2022-08-19T10:59:07;25.10;99.90
14471;DHT22;7321;50.802;4.336;2022-08-19T11:01:34;25.00;99.90
14471;DHT22;7321;50.802;4.336;2022-08-19T11:04:01;25.30;99.90
14471;DHT22;7321;50.802;4.336;2022-08-19T11:06:27;25.20;99.90
14471;DHT22;7321;50.802;4.336;2022-08-19T11:08:54;25.00;99.90
14471;DHT22;7321;50.802;4.336;2022-08-19T11:11:21;25.00;99.90
14471;DHT22;7321;50.802;4.336;2022-08-19T11:13:48;24.80;99.90
14471;DHT22;7321;50.802;4.336;2022-08-19T11:16:23;24.80;99.90
14471;DHT22;7321;50.802;4.336;2022-08-19T11:18:53;24.80;99.90
14471;DHT22;7321;50.802;4.336;2022-08-19T11:21:22;24.70;99.90
14471;DHT22;7321;50.802;4.336;2022-08-19T11:23:50;24.80;99.90
14471;DHT22;7321;50.802;4.336;2022-08-19T11:26:17;24.90;99.90
14471;DHT22;7321;50.802;4.336;2022-08-19T11:28:44;25.20;99.90
14471;DHT22;7321;50.802;4.336;2022-08-19T11:31:18;25.20;99.90
14471;DHT22;7321;50.802;4.336;2022-08-19T11:33:45;25.10;99.90
14471;DHT22;7321;50.802;4.336;2022-08-19T11:36:12;25.10;99.90
14471;DHT22;7321;50.802;4.336;2022-08-19T11:38:38;25.10;99.90
14471;DHT22;7321;50.802;4.336;2022-08-19T11:41:06;25.20;99.90
14471;DHT22;7321;50.802;4.336;2022-08-19T11:43:36;25.20;99.90
14471;DHT22;7321;50.802;4.336;2022-08-19T11:46:10;25.10;99.90
14471;DHT22;7321;50.802;4.336;2022-08-19T11:48:37;25.10;99.90
14471;DHT22;7321;50.802;4.336;2022-08-19T11:51:07;25.20;99.90
14471;DHT22;7321;50.802;4.336;2022-08-19T11:53:33;25.50;99.90
14471;DHT22;7321;50.802;4.336;2022-08-19T11:55:59;25.70;99.90
14471;DHT22;7321;50.802;4.336;2022-08-19T11:58:25;25.90;99.90
14471;DHT22;7321;50.802;4.336;2022-08-19T12:00:52;26.20;99.90
14471;DHT22;7321;50.802;4.336;2022-08-19T12:03:18;26.50;99.90
14471;DHT22;7321;50.802;4.336;2022-08-19T12:05:48;26.70;99.90
14471;DHT22;7321;50.802;4.336;2022-08-19T12:08:16;26.90;99.90
14471;DHT22;7321;50.802;4.336;2022-08-19T12:10:42;26.90;99.90
14471;DHT22;7321;50.802;4.336;2022-08-19T12:13:10;27.10;99.90
14471;DHT22;7321;50.802;4.336;2022-08-19T12:15:39;27.10;99.90
14471;DHT22;7321;50.802;4.336;2022-08-19T12:18:09;27.00;99.90
14471;DHT22;7321;50.802;4.336;2022-08-19T12:20:39;27.10;99.90
14471;DHT22;7321;50.802;4.336;2022-08-19T12:23:07;27.10;99.90
14471;DHT22;7321;50.802;4.336;2022-08-19T12:25:33;27.10;99.90
14471;DHT22;7321;50.802;4.336;2022-08-19T12:28:00;27.10;99.90
14471;DHT22;7321;50.802;4.336;2022-08-19T12:30:26;27.20;99.90
14471;DHT22;7321;50.802;4.336;2022-08-19T12:32:52;27.30;99.90
14471;DHT22;7321;50.802;4.336;2022-08-19T12:35:19;27.30;99.90
14471;DHT22;7321;50.802;4.336;2022-08-19T12:37:47;27.50;99.90
14471;DHT22;7321;50.802;4.336;2022-08-19T12:40:14;27.60;99.90
14471;DHT22;7321;50.802;4.336;2022-08-19T12:42:40;27.50;99.90
14471;DHT22;7321;50.802;4.336;2022-08-19T12:45:10;27.30;99.90
14471;DHT22;7321;50.802;4.336;2022-08-19T12:47:36;27.40;99.90
14471;DHT22;7321;50.802;4.336;2022-08-19T12:50:06;27.30;99.90
14471;DHT22;7321;50.802;4.336;2022-08-19T12:52:37;27.40;99.90
14471;DHT22;7321;50.802;4.336;2022-08-19T12:55:05;27.40;99.90
14471;DHT22;7321;50.802;4.336;2022-08-19T12:57:32;27.60;99.90
14471;DHT22;7321;50.802;4.336;2022-08-19T13:00:03;27.70;99.90
14471;DHT22;7321;50.802;4.336;2022-08-19T13:02:31;27.60;99.90
14471;DHT22;7321;50.802;4.336;2022-08-19T13:04:57;27.40;99.90
14471;DHT22;7321;50.802;4.336;2022-08-19T13:07:23;27.60;99.90
14471;DHT22;7321;50.802;4.336;2022-08-19T13:09:51;27.60;99.90
14471;DHT22;7321;50.802;4.336;2022-08-19T13:12:17;27.80;99.90
14471;DHT22;7321;50.802;4.336;2022-08-19T13:14:45;27.80;99.90
14471;DHT22;7321;50.802;4.336;2022-08-19T13:17:15;27.90;99.90
14471;DHT22;7321;50.802;4.336;2022-08-19T13:19:41;27.80;99.90
14471;DHT22;7321;50.802;4.336;2022-08-19T13:22:07;27.90;99.90
14471;DHT22;7321;50.802;4.336;2022-08-19T13:24:32;27.90;99.90
14471;DHT22;7321;50.802;4.336;2022-08-19T13:27:00;28.00;99.90
14471;DHT22;7321;50.802;4.336;2022-08-19T13:29:26;28.10;99.90
14471;DHT22;7321;50.802;4.336;2022-08-19T13:32:10;28.10;99.90
14471;DHT22;7321;50.802;4.336;2022-08-19T13:35:05;28.00;99.90
14471;DHT22;7321;50.802;4.336;2022-08-19T13:37:31;28.00;99.90
14471;DHT22;7321;50.802;4.336;2022-08-19T13:40:23;28.00;99.90
14471;DHT22;7321;50.802;4.336;2022-08-19T13:42:53;28.20;99.90
14471;DHT22;7321;50.802;4.336;2022-08-19T13:45:21;28.20;99.90
14471;DHT22;7321;50.802;4.336;2022-08-19T13:47:49;27.90;99.90
14471;DHT22;7321;50.802;4.336;2022-08-19T13:50:18;28.10;99.90
14471;DHT22;7321;50.802;4.336;2022-08-19T13:52:45;28.00;99.90
14471;DHT22;7321;50.802;4.336;2022-08-19T13:55:13;27.70;99.90
14471;DHT22;7321;50.802;4.336;2022-08-19T13:57:39;27.40;99.90
14471;DHT22;7321;50.802;4.336;2022-08-19T14:00:09;27.30;99.90
14471;DHT22;7321;50.802;4.336;2022-08-19T14:02:37;27.20;99.90
14471;DHT22;7321;50.802;4.336;2022-08-19T14:05:07;27.20;99.90
14471;DHT22;7321;50.802;4.336;2022-08-19T14:07:34;27.00;99.90
14471;DHT22;7321;50.802;4.336;2022-08-19T14:10:00;26.80;99.90
14471;DHT22;7321;50.802;4.336;2022-08-19T14:12:26;26.40;99.90
14471;DHT22;7321;50.802;4.336;2022-08-19T14:14:51;26.40;99.90
14471;DHT22;7321;50.802;4.336;2022-08-19T14:17:17;26.40;99.90
14471;DHT22;7321;50.802;4.336;2022-08-19T14:19:43;26.40;99.90
14471;DHT22;7321;50.802;4.336;2022-08-19T14:22:09;26.50;99.90
14471;DHT22;7321;50.802;4.336;2022-08-19T14:24:37;26.30;99.90
14471;DHT22;7321;50.802;4.336;2022-08-19T14:27:05;26.20;99.90
14471;DHT22;7321;50.802;4.336;2022-08-19T14:29:33;26.20;99.90
14471;DHT22;7321;50.802;4.336;2022-08-19T14:31:58;26.20;99.90
14471;DHT22;7321;50.802;4.336;2022-08-19T14:34:25;26.10;99.90
14471;DHT22;7321;50.802;4.336;2022-08-19T14:36:52;25.90;99.90
14471;DHT22;7321;50.802;4.336;2022-08-19T14:39:17;25.80;99.90
14471;DHT22;7321;50.802;4.336;2022-08-19T14:41:43;25.80;99.90
14471;DHT22;7321;50.802;4.336;2022-08-19T14:44:11;25.70;99.90
14471;DHT22;7321;50.802;4.336;2022-08-19T14:46:38;25.60;99.90
14471;DHT22;7321;50.802;4.336;2022-08-19T14:49:05;25.60;99.90
14471;DHT22;7321;50.802;4.336;2022-08-19T14:51:30;25.80;99.90
14471;DHT22;7321;50.802;4.336;2022-08-19T14:53:56;26.00;99.90
14471;DHT22;7321;50.802;4.336;2022-08-19T14:56:25;26.10;99.90
14471;DHT22;7321;50.802;4.336;2022-08-19T14:58:51;26.40;99.90
14471;DHT22;7321;50.802;4.336;2022-08-19T15:01:17;26.40;99.90
14471;DHT22;7321;50.802;4.336;2022-08-19T15:03:45;26.50;99.90
14471;DHT22;7321;50.802;4.336;2022-08-19T15:06:11;26.50;99.90
14471;DHT22;7321;50.802;4.336;2022-08-19T15:08:38;26.50;99.90
14471;DHT22;7321;50.802;4.336;2022-08-19T15:11:08;26.60;99.90
14471;DHT22;7321;50.802;4.336;2022-08-19T15:13:35;26.70;99.90
14471;DHT22;7321;50.802;4.336;2022-08-19T15:16:01;26.70;99.90
14471;DHT22;7321;50.802;4.336;2022-08-19T15:18:27;26.50;99.90
14471;DHT22;7321;50.802;4.336;2022-08-19T15:20:53;26.60;99.90
14471;DHT22;7321;50.802;4.336;2022-08-19T15:23:20;26.50;99.90
14471;DHT22;7321;50.802;4.336;2022-08-19T15:25:46;26.70;99.90
14471;DHT22;7321;50.802;4.336;2022-08-19T15:28:12;26.90;99.90
14471;DHT22;7321;50.802;4.336;2022-08-19T15:30:39;27.00;99.90
14471;DHT22;7321;50.802;4.336;2022-08-19T15:33:05;27.30;99.90
14471;DHT22;7321;50.802;4.336;2022-08-19T15:35:35;27.60;99.90
14471;DHT22;7321;50.802;4.336;2022-08-19T15:38:01;27.80;99.90
14471;DHT22;7321;50.802;4.336;2022-08-19T15:40:27;27.90;99.90
14471;DHT22;7321;50.802;4.336;2022-08-19T15:42:53;28.00;99.90
14471;DHT22;7321;50.802;4.336;2022-08-19T15:45:20;28.00;99.90
14471;DHT22;7321;50.802;4.336;2022-08-19T15:47:46;27.70;99.90
14471;DHT22;7321;50.802;4.336;2022-08-19T15:50:17;27.60;99.90
14471;DHT22;7321;50.802;4.336;2022-08-19T15:52:52;27.50;99.90
14471;DHT22;7321;50.802;4.336;2022-08-19T15:55:20;27.60;99.90
14471;DHT22;7321;50.802;4.336;2022-08-19T15:57:46;28.00;99.90
14471;DHT22;7321;50.802;4.336;2022-08-19T16:00:30;28.20;99.90
14471;DHT22;7321;50.802;4.336;2022-08-19T16:03:14;28.20;99.90